Flight Track Log - Related Links

Times and Time Zones

All times are in EDT time to prevent confusion due to time zone crossing. See the NKS945 flight status page for this flight to view local times or setup timezone preferences in your user account.


Time Position Orientation Groundspeed Altitude Reporting Facility
EDT Latitude Longitude Course Direction KTS MPH feet Rate Location/Type
Wed 03:42:51 PM 39.4371 -74.5268 117° Southeast 178 205 1,900  Level FlightAware ADS-B
Wed 03:43:08 PM 39.4300 -74.5085 116° Southeast 207 238 2,300 1,538 Climbing FlightAware ADS-B
Wed 03:43:30 PM 39.4199 -74.4815 116° Southeast 217 250 2,900 2,036 Climbing FlightAware ADS-B
Wed 03:44:04 PM 39.4019 -74.4341 130° Southeast 284 327 4,200 2,634 Climbing FlightAware ADS-B
Wed 03:44:11 PM 39.3949 -74.4232 152° Southeast 289 333 4,700 3,840 Climbing FlightAware ADS-B
Wed 03:44:29 PM 39.3737 -74.4085 176° South 289 333 5,800 3,600 Climbing FlightAware ADS-B
Wed 03:44:41 PM 39.3577 -74.4070 192° South 291 335 6,500 3,474 Climbing FlightAware ADS-B
Wed 03:44:48 PM 39.3487 -74.4095 202° Southwest 291 335 6,900 3,333 Climbing FlightAware ADS-B
Wed 03:45:08 PM 39.3240 -74.4222 204° Southwest 293 337 8,000 3,316 Climbing FlightAware ADS-B
Wed 03:45:26 PM 39.3017 -74.4351 204° Southwest 296 341 9,000 3,455 Climbing FlightAware ADS-B
Wed 03:45:41 PM 39.2817 -74.4465 203° Southwest 299 344 9,900 2,512 Climbing FlightAware ADS-B
Wed 03:46:09 PM 39.2448 -74.4672 212° Southwest 329 379 10,800 1,538 Climbing FlightAware ADS-B
Wed 03:46:20 PM 39.2313 -74.4781 222° Southwest 337 388 10,900 800 Climbing FlightAware ADS-B
Wed 03:46:24 PM 39.2267 -74.4835 230° Southwest 339 390 11,000 1,091 Climbing FlightAware ADS-B
Wed 03:46:31 PM 39.2189 -74.4956 234° Southwest 343 395 11,100 2,286 Climbing FlightAware ADS-B
Wed 03:47:06 PM 39.1858 -74.5548 234° Southwest 356 410 12,600 3,000 Climbing FlightAware ADS-B
Wed 03:47:35 PM 39.1580 -74.6046 229° Southwest 354 407 14,300 3,568 Climbing FlightAware ADS-B
Wed 03:47:43 PM 39.1497 -74.6167 223° Southwest 354 407 14,800 3,474 Climbing FlightAware ADS-B
Wed 03:48:13 PM 39.1141 -74.6592 226° Southwest 342 394 16,500 2,609 Climbing FlightAware ADS-B
Wed 03:48:29 PM 39.0971 -74.6822 245° Southwest 341 392 16,800 545 Climbing FlightAware ADS-B
Wed 03:48:46 PM 39.0860 -74.7131 254° West 341 392 16,800  Level FlightAware ADS-B
Wed 03:49:16 PM 39.0726 -74.7747 254° West 359 413 16,800  Level FlightAware ADS-B
Wed 03:49:48 PM 39.0578 -74.8412 254° West 359 413 16,800  Level FlightAware ADS-B
Wed 03:50:20 PM 39.0434 -74.9048 253° West 357 411 16,800  Level FlightAware ADS-B
Wed 03:50:52 PM 39.0283 -74.9703 247° West 360 414 16,800  Level FlightAware ADS-B
Wed 03:50:58 PM 39.0242 -74.9830 241° Southwest 363 418 16,800  Level FlightAware ADS-B
Wed 03:51:04 PM 39.0192 -74.9946 232° Southwest 367 422 16,800  Level FlightAware ADS-B
Wed 03:51:14 PM 39.0086 -75.0121 225° Southwest 375 432 16,800  Level FlightAware ADS-B
Wed 03:51:18 PM 39.0047 -75.0171 218° Southwest 378 435 16,800 171 Level FlightAware ADS-B
Wed 03:51:49 PM 38.9611 -75.0613 218° Southwest 380 437 16,900 1,292 Climbing FlightAware ADS-B
Wed 03:52:23 PM 38.9141 -75.1078 218° Southwest 384 442 18,200 2,344 Climbing FlightAware ADS-B
Wed 03:52:53 PM 38.8708 -75.1508 217° Southwest 390 449 19,400 2,100 Climbing FlightAware ADS-B
Wed 03:53:23 PM 38.8266 -75.1940 213° Southwest 404 465 20,300 2,000 Climbing FlightAware ADS-B
Wed 03:53:44 PM 38.7940 -75.2207 208° Southwest 409 471 21,100 2,000 Climbing FlightAware ADS-B
Wed 03:54:14 PM 38.7423 -75.2553 207° Southwest 419 482 22,000 1,700 Climbing FlightAware ADS-B
Wed 03:54:44 PM 38.6895 -75.2892 207° Southwest 425 489 22,800 1,672 Climbing FlightAware ADS-B
Wed 03:55:15 PM 38.6347 -75.3247 207° Southwest 432 497 23,700 1,742 Climbing FlightAware ADS-B
Wed 03:55:46 PM 38.5807 -75.3594 207° Southwest 435 501 24,600 1,742 Climbing FlightAware ADS-B
Wed 03:56:17 PM 38.5236 -75.3963 209° Southwest 439 505 25,500 1,229 Climbing FlightAware ADS-B
Wed 03:57:09 PM 38.4525 -75.4458 207° Southwest 436 502 26,300 1,309 Climbing Washington Center
Wed 03:58:07 PM 38.3400 -75.5175 206° Southwest 442 509 27,900 1,592 Climbing Washington Center
Wed 03:59:36 PM 38.1533 -75.6308 206° Southwest 459 528 30,200 1,756 Climbing FlightAware ADS-B
Wed 04:00:10 PM 38.0871 -75.6720 206° Southwest 453 521 31,500 1,791 Climbing FlightAware ADS-B
Wed 04:00:43 PM 38.0257 -75.7102 206° Southwest 449 517 32,200 1,125 Climbing FlightAware ADS-B
Wed 04:01:14 PM 37.9668 -75.7468 206° Southwest 456 525 32,700 1,304 Climbing FlightAware ADS-B
Wed 04:01:52 PM 37.8953 -75.7912 206° Southwest 451 519 33,700 1,130 Climbing FlightAware ADS-B
Wed 04:02:23 PM 37.8378 -75.8269 206° Southwest 446 513 34,000 295 Climbing FlightAware ADS-B
Wed 04:02:53 PM 37.7819 -75.8612 216° Southwest 446 513 34,000  Level FlightAware ADS-B
Wed 04:03:07 PM 37.7661 -75.8756 206° Southwest 450 518 34,000 81 Level Washington Center
Wed 04:04:07 PM 37.6533 -75.9458 205° Southwest 450 518 34,100 691 Climbing Washington Center
Wed 04:05:26 PM 37.4945 -76.0378 206° Southwest 451 519 35,600 1,027 Climbing FlightAware ADS-B
Wed 04:05:58 PM 37.4356 -76.0737 206° Southwest 448 516 36,000 381 Climbing FlightAware ADS-B
Wed 04:06:29 PM 37.3786 -76.1086 206° Southwest 445 512 36,000  Level FlightAware ADS-B
Wed 04:07:03 PM 37.3152 -76.1473 206° Southwest 445 512 36,000  Level FlightAware ADS-B
Wed 04:07:38 PM 37.2508 -76.1866 206° Southwest 445 512 36,000  Level FlightAware ADS-B
Wed 04:08:12 PM 37.1871 -76.2252 205° Southwest 445 512 36,000  Level FlightAware ADS-B
Wed 04:09:09 PM 37.0908 -76.2819 206° Southwest 445 512 36,000  Level Washington Center
Wed 04:10:07 PM 36.9797 -76.3483 206° Southwest 445 512 36,000  Level Washington Center
Wed 04:11:07 PM 36.8708 -76.4150 206° Southwest 445 512 36,000  Level Washington Center
Wed 04:12:08 PM 36.7600 -76.4811 208° Southwest 445 512 36,000  Level Washington Center
Wed 04:13:09 PM 36.6614 -76.5472 205° Southwest 445 512 36,000  Level Washington Center
Wed 04:14:07 PM 36.5503 -76.6106 205° Southwest 445 512 36,000  Level Washington Center
Wed 04:15:08 PM 36.4392 -76.6764 205° Southwest 445 512 36,000  Level Washington Center
Wed 04:16:07 PM 36.3278 -76.7419 205° Southwest 445 512 36,000 -50 Level Washington Center
Wed 04:17:07 PM 36.2167 -76.8072 205° Southwest 445 512 35,900 -50 Descending Washington Center
Wed 04:18:08 PM 36.1053 -76.8722 206° Southwest 445 512 35,900 50 Level Washington Center
Wed 04:19:08 PM 35.9919 -76.9397 204° Southwest 445 512 36,000 50 Climbing Washington Center
Wed 04:20:07 PM 35.8764 -77.0019 208° Southwest 445 512 36,000  Level Washington Center
Wed 04:21:07 PM 35.7692 -77.0717 204° Southwest 445 512 36,000  Level Washington Center
Wed 04:22:09 PM 35.6475 -77.1383 205° Southwest 445 512 36,000  Level Washington Center
Wed 04:23:07 PM 35.5339 -77.2025 202° Southwest 445 512 36,000  Level Washington Center
Wed 04:24:08 PM 35.4206 -77.2589 196° South 445 512 36,000  Level Washington Center
Wed 04:25:08 PM 35.2989 -77.3022 197° South 445 512 36,000  Level Washington Center
Wed 04:26:08 PM 35.1814 -77.3456 196° South 451 519 36,000  Level Washington Center
Wed 04:27:09 PM 35.0597 -77.3886 197° South 451 519 36,000  Level Washington Center
Wed 04:28:09 PM 34.9569 -77.4269 197° South 446 513 36,000  Level Washington Center
Wed 04:29:07 PM 34.8372 -77.4722 198° South 446 513 36,000  Level Washington Center
Wed 04:30:07 PM 34.7239 -77.5175 197° South 441 507 36,000  Level Washington Center
Wed 04:31:07 PM 34.6064 -77.5603 196° South 441 507 36,000  Level Washington Center
Wed 04:32:08 PM 34.4889 -77.6003 197° South 441 507 36,000  Level Washington Center
Wed 04:33:09 PM 34.3711 -77.6428 205° Southwest 441 507 36,000  Level Washington Center
Wed 04:34:09 PM 34.2617 -77.7053 237° Southwest 441 507 36,000  Level Washington Center
Wed 04:35:07 PM 34.1883 -77.8439 245° Southwest 446 513 36,000  Level Washington Center
Wed 04:37:22 PM 34.0667 -78.1522 241° Southwest 451 519 36,000  Level Jacksonville Center
Wed 04:38:22 PM 34.0067 -78.2808 233° Southwest 456 525 36,000  Level Jacksonville Center
Wed 04:39:22 PM 33.9336 -78.3972 234° Southwest 449 517 36,000  Level Jacksonville Center
Wed 04:40:22 PM 33.8606 -78.5161 233° Southwest 444 511 36,000  Level Jacksonville Center
Wed 04:41:22 PM 33.7875 -78.6322 233° Southwest 444 511 36,000  Level Jacksonville Center
Wed 04:42:22 PM 33.7142 -78.7506 233° Southwest 444 511 36,000  Level Jacksonville Center
Wed 04:43:22 PM 33.6408 -78.8686 234° Southwest 444 511 36,000  Level Jacksonville Center
Wed 04:44:22 PM 33.5694 -78.9867 233° Southwest 449 517 36,000  Level Jacksonville Center
Wed 04:45:22 PM 33.4958 -79.1044 231° Southwest 444 511 36,000 -50 Level Jacksonville Center
Wed 04:46:22 PM 33.4239 -79.2119 232° Southwest 433 498 35,900  Descending Jacksonville Center
Wed 04:47:22 PM 33.3478 -79.3294 233° Southwest 433 498 36,000 50 Climbing Jacksonville Center
Wed 04:48:22 PM 33.2739 -79.4467 232° Southwest 433 498 36,000  Level Jacksonville Center
Wed 04:49:22 PM 33.1997 -79.5614 233° Southwest 444 511 36,000  Level Jacksonville Center
Wed 04:50:22 PM 33.1336 -79.6653 233° Southwest 444 511 36,000  Level Jacksonville Center
Wed 04:51:22 PM 33.0594 -79.7822 232° Southwest 444 511 36,000 -50 Level Jacksonville Center
Wed 04:52:22 PM 32.9808 -79.9011 231° Southwest 444 511 35,900  Descending Jacksonville Center
Wed 04:53:22 PM 32.9042 -80.0125 222° Southwest 444 511 36,000 50 Climbing Jacksonville Center
Wed 04:54:22 PM 32.8103 -80.1119 218° Southwest 449 517 36,000 -50 Level Jacksonville Center
Wed 04:55:22 PM 32.7119 -80.2039 217° Southwest 449 517 35,900  Descending Jacksonville Center
Wed 04:56:22 PM 32.6136 -80.2931 219° Southwest 454 522 36,000 50 Climbing Jacksonville Center
Wed 04:57:22 PM 32.5175 -80.3844 217° Southwest 454 522 36,000 -50 Level Jacksonville Center
Wed 04:58:22 PM 32.4189 -80.4733 219° Southwest 454 522 35,900 -50 Descending Jacksonville Center
Wed 04:59:22 PM 32.3267 -80.5619 216° Southwest 454 522 35,900  Level Jacksonville Center
Wed 05:00:22 PM 32.2281 -80.6481 218° Southwest 448 516 35,900 50 Level Jacksonville Center
Wed 05:01:22 PM 32.1253 -80.7436 218° Southwest 442 509 36,000 50 Climbing Jacksonville Center
Wed 05:02:22 PM 32.0369 -80.8242 217° Southwest 442 509 36,000  Level Jacksonville Center
Wed 05:03:22 PM 31.9300 -80.9194 218° Southwest 447 514 36,000  Level Jacksonville Center
Wed 05:04:22 PM 31.8331 -81.0072 218° Southwest 447 514 36,000  Level Jacksonville Center
Wed 05:05:22 PM 31.7444 -81.0872 218° Southwest 447 514 36,000  Level Jacksonville Center
Wed 05:06:22 PM 31.6372 -81.1844 218° Southwest 452 520 36,000  Level Jacksonville Center
Wed 05:07:22 PM 31.5422 -81.2714 217° Southwest 452 520 36,000  Level Jacksonville Center
Wed 05:09:22 PM 31.3586 -81.4328 217° Southwest 452 520 36,000 -33 Level Jacksonville Center
Wed 05:10:22 PM 31.2511 -81.5292 216° Southwest 452 520 35,900 -50 Descending Jacksonville Center
Wed 05:11:22 PM 31.1536 -81.6133 217° Southwest 450 518 35,900 50 Level Jacksonville Center
Wed 05:12:22 PM 31.0586 -81.6969 218° Southwest 450 518 36,000 50 Climbing Jacksonville Center
Wed 05:13:22 PM 30.9633 -81.7853 216° Southwest 450 518 36,000  Level Jacksonville Center
Wed 05:14:22 PM 30.8636 -81.8711 218° Southwest 450 518 36,000 -50 Level Jacksonville Center
Wed 05:15:22 PM 30.7767 -81.9497 210° Southwest 450 518 35,900 -50 Descending Jacksonville Center
Wed 05:16:22 PM 30.6728 -82.0183 198° South 445 512 35,900 50 Level Jacksonville Center
Wed 05:17:22 PM 30.5542 -82.0628 182° South 445 512 36,000 50 Climbing Jacksonville Center
Wed 05:18:22 PM 30.4331 -82.0686 175° South 436 502 36,000 -50 Level Jacksonville Center
Wed 05:19:22 PM 30.3075 -82.0553 175° South 441 507 35,900 -50 Descending Jacksonville Center
Wed 05:20:22 PM 30.1822 -82.0419 174° South 441 507 35,900 50 Level Jacksonville Center
Wed 05:21:22 PM 30.0611 -82.0261 177° South 441 507 36,000  Climbing Jacksonville Center
Wed 05:22:22 PM 29.9336 -82.0178 174° South 447 514 35,900 -200 Descending Jacksonville Center
Wed 05:23:22 PM 29.8125 -82.0022 173° South 447 514 35,600 -500 Descending Jacksonville Center
Wed 05:24:22 PM 29.6892 -81.9842 174° South 447 514 34,900 -300 Descending Jacksonville Center
Wed 05:25:22 PM 29.5639 -81.9686 172° South 447 514 35,000  Climbing Jacksonville Center
Wed 05:26:22 PM 29.4383 -81.9483 174° South 447 514 34,900 -50 Descending Jacksonville Center
Wed 05:27:22 PM 29.2983 -81.9306 172° South 454 522 34,900 -145 Level Jacksonville Center
Wed 05:29:49 PM 29.0031 -81.8842 173° South 465 535 34,400 -667 Descending Miami Center
Wed 05:30:49 PM 28.8786 -81.8669 175° South 460 529 32,600 -1,950 Descending Miami Center
Wed 05:31:49 PM 28.7561 -81.8542 169° South 460 529 30,500 -2,150 Descending Miami Center
Wed 05:32:49 PM 28.6319 -81.8272 169° South 460 529 28,300 -1,750 Descending Miami Center
Wed 05:33:49 PM 28.5119 -81.8008 170° South 455 524 27,000 -1,350 Descending Miami Center
Wed 05:34:49 PM 28.3978 -81.7769 171° South 439 505 25,600 -1,350 Descending Miami Center
Wed 05:35:49 PM 28.2797 -81.7553 169° South 434 499 24,300 -900 Descending Miami Center
Wed 05:36:49 PM 28.1742 -81.7317 168° South 411 473 23,800 -1,100 Descending Miami Center
Wed 05:37:49 PM 28.0644 -81.7058 170° South 406 467 22,100 -1,500 Descending Miami Center
Wed 05:38:49 PM 27.9464 -81.6819 168° South 396 456 20,800 -1,150 Descending Miami Center
Wed 05:39:49 PM 27.8469 -81.6589 168° South 390 449 19,800 -950 Descending Miami Center
Wed 05:40:49 PM 27.7497 -81.6361 170° South 367 422 18,900 -900 Descending Miami Center
Wed 05:41:49 PM 27.6500 -81.6156 171° South 367 422 18,000 -900 Descending Miami Center
Wed 05:42:49 PM 27.5506 -81.5975 168° South 367 422 17,100 -900 Descending Miami Center
Wed 05:43:49 PM 27.4553 -81.5747 170° South 367 422 16,200 -950 Descending Miami Center
Wed 05:44:49 PM 27.3597 -81.5567 169° South 361 415 15,200 -1,050 Descending Miami Center
Wed 05:45:49 PM 27.2667 -81.5367 170° South 351 404 14,100 -1,450 Descending Miami Center
Wed 05:46:49 PM 27.1733 -81.5189 169° South 351 404 12,300 -1,700 Descending Miami Center
Wed 05:47:49 PM 27.0861 -81.4992 167° South 341 392 10,700 -1,150 Descending Miami Center
Wed 05:48:49 PM 27.0136 -81.4797 158° South 316 364 10,000 -350 Descending Miami Center
Wed 05:49:49 PM 26.9314 -81.4417 156° South 291 335 10,000 -350 Level Miami Center
Wed 05:50:49 PM 26.8617 -81.4064 163° South 282 325 9,300 -850 Descending Miami Center
Wed 05:51:49 PM 26.7850 -81.3800 190° South 282 325 8,300 -1,300 Descending Miami Center
Wed 05:52:49 PM 26.7178 -81.3939 199° South 276 318 6,700 -1,950 Descending Miami Center
Wed 05:53:49 PM 26.6481 -81.4214 249° West 269 310 4,400 -2,300 Descending Miami Center
Wed 06:01:15 PM 26.5333 -81.7500 302° West  Level FlightAware Approximate
Wed 06:02:15 PM 26.5963 -81.8648 121° Southeast  Level Estimated
Wed 06:03:15 PM 26.5333 -81.7500 302° West  Level FlightAware Approximate
Wed 06:04:15 PM 26.5963 -81.8648 121° Southeast  Level Estimated
Wed 06:05:15 PM 26.5333 -81.7500 302° West  Level FlightAware Approximate
Wed 06:06:15 PM 26.5963 -81.8648 121° Southeast  Level Estimated
Wed 06:07:15 PM 26.5333 -81.7500 302° West  Level FlightAware Approximate
Wed 06:08:15 PM 26.5963 -81.8648 121° Southeast  Level Estimated
Wed 06:09:15 PM 26.5333 -81.7500 302° West  Level FlightAware Approximate

Login

Don't have an account? Register now (free) for customized features, flight alerts, and more!